Time;durP1;ratioP1;P1;durP2;ratioP2;P2;SDS_P1;SDS_P2;PMS_P1;PMS_P2;Temp;Humidity;BMP_temperature;BMP_pressure;BME280_temperature;BME280_humidity;BME280_pressure;Samples;Min_cycle;Max_cycle;Signal;HPM_P1;HPM_P2
2021/11/08 00:02:00;;;;;;;24.10;15.77;;;10.70;68.00;;;;;;5039461;28;20059;-49
2021/11/08 00:04:27;;;;;;;20.00;15.88;;;10.70;67.90;;;;;;5032651;28;20038;-49
2021/11/08 00:06:54;;;;;;;21.23;16.20;;;10.80;68.10;;;;;;5014177;28;20084;-49
2021/11/08 00:09:20;;;;;;;22.02;15.02;;;10.80;67.80;;;;;;5030635;28;20712;-50
2021/11/08 00:11:46;;;;;;;25.25;15.77;;;10.70;67.90;;;;;;5031626;28;20340;-50
2021/11/08 00:14:17;;;;;;;19.50;16.13;;;10.70;67.40;;;;;;5027560;28;20026;-51
2021/11/08 00:19:58;;;;;;;18.08;15.55;;;10.70;68.10;;;;;;5023095;28;19932;-52
2021/11/08 00:22:24;;;;;;;19.00;14.93;;;10.60;67.60;;;;;;5022116;28;20053;-53
2021/11/08 00:24:51;;;;;;;22.20;16.23;;;10.70;67.90;;;;;;5036280;28;20479;-49
2021/11/08 00:27:18;;;;;;;20.17;15.98;;;10.70;68.00;;;;;;5032527;28;20064;-50
2021/11/08 00:29:44;;;;;;;20.02;16.23;;;10.70;68.20;;;;;;5030402;28;20052;-49
2021/11/08 00:32:10;;;;;;;22.98;16.48;;;10.70;68.30;;;;;;5031804;28;20503;-50
2021/11/08 00:34:36;;;;;;;21.05;14.90;;;10.70;68.60;;;;;;5031987;28;20036;-49
2021/11/08 00:37:02;;;;;;;19.88;15.07;;;10.70;68.30;;;;;;5033375;28;20048;-48
2021/11/08 00:39:30;;;;;;;21.63;16.20;;;10.70;68.80;;;;;;5037979;28;20029;-48
2021/11/08 00:41:56;;;;;;;21.67;16.08;;;10.60;68.30;;;;;;5025525;28;20034;-48
2021/11/08 00:44:22;;;;;;;21.42;15.75;;;10.60;67.80;;;;;;5032353;28;20052;-49
2021/11/08 00:46:50;;;;;;;21.15;16.48;;;10.60;67.60;;;;;;5027165;28;20018;-49
2021/11/08 00:49:16;;;;;;;21.23;17.48;;;10.50;67.80;;;;;;5021726;28;20021;-50
2021/11/08 00:51:45;;;;;;;24.90;18.10;;;10.40;68.40;;;;;;5029321;28;20423;-48
2021/11/08 00:54:13;;;;;;;23.75;19.00;;;10.40;68.90;;;;;;5031237;28;20032;-50
2021/11/08 00:56:42;;;;;;;22.38;17.35;;;10.40;69.00;;;;;;5032700;28;20088;-49
2021/11/08 00:59:08;;;;;;;23.75;16.42;;;10.40;68.60;;;;;;5027613;28;20040;-48
2021/11/08 01:01:41;;;;;;;24.02;17.23;;;10.40;68.50;;;;;;5026508;28;20083;-48
2021/11/08 01:04:07;;;;;;;25.80;17.38;;;10.40;68.70;;;;;;5032733;28;20037;-49
2021/11/08 01:06:33;;;;;;;24.27;18.42;;;10.40;69.30;;;;;;5032678;28;20025;-49
2021/11/08 01:09:16;;;;;;;23.50;17.77;;;10.40;69.30;;;;;;5031506;28;20395;-50
2021/11/08 01:11:43;;;;;;;26.33;17.95;;;10.40;69.80;;;;;;5031097;28;20118;-50
2021/11/08 01:14:09;;;;;;;20.52;16.38;;;10.40;69.70;;;;;;5034363;28;20038;-49
2021/11/08 01:16:37;;;;;;;21.88;17.33;;;10.30;69.20;;;;;;5028557;28;20026;-49
2021/11/08 01:19:06;;;;;;;20.88;16.90;;;10.40;69.50;;;;;;5030638;28;20029;-50
2021/11/08 01:21:36;;;;;;;19.73;16.52;;;10.50;69.20;;;;;;5031549;28;20022;-48
2021/11/08 01:24:02;;;;;;;22.02;17.08;;;10.40;69.20;;;;;;5032259;28;20037;-50
2021/11/08 01:26:29;;;;;;;25.58;17.42;;;10.40;69.00;;;;;;5032070;28;20026;-48
2021/11/08 01:28:55;;;;;;;23.88;16.63;;;10.50;69.70;;;;;;5027155;28;20491;-49
2021/11/08 01:31:22;;;;;;;22.10;17.38;;;10.50;69.30;;;;;;5029428;28;20029;-49
2021/11/08 01:33:50;;;;;;;23.07;17.77;;;10.50;69.40;;;;;;5031448;28;20482;-49
2021/11/08 01:36:22;;;;;;;21.42;16.50;;;10.50;69.50;;;;;;5052786;28;20052;-49
2021/11/08 01:38:49;;;;;;;24.23;17.00;;;10.40;69.30;;;;;;5033055;28;20107;-49
2021/11/08 01:41:19;;;;;;;21.92;16.45;;;10.40;70.40;;;;;;5038580;28;20047;-49
2021/11/08 01:43:46;;;;;;;22.80;17.25;;;10.40;69.50;;;;;;5033716;28;20751;-50
2021/11/08 01:46:12;;;;;;;23.67;16.45;;;10.40;69.70;;;;;;5035956;28;20052;-54
2021/11/08 01:49:25;;;;;;;19.67;16.38;;;10.30;70.10;;;;;;5034542;28;20029;-49
2021/11/08 01:51:51;;;;;;;22.58;16.83;;;10.20;71.00;;;;;;5034501;28;20041;-51
2021/11/08 01:54:17;;;;;;;22.08;16.98;;;10.10;70.50;;;;;;5040795;28;20020;-50
2021/11/08 01:56:45;;;;;;;21.50;16.98;;;10.10;70.90;;;;;;5049203;28;20061;-48
2021/11/08 01:59:10;;;;;;;21.25;17.30;;;10.20;71.00;;;;;;5034943;28;20081;-49
2021/11/08 02:01:37;;;;;;;20.13;17.88;;;10.10;71.10;;;;;;5034970;28;20025;-48
2021/11/08 02:04:02;;;;;;;22.65;17.15;;;10.10;71.20;;;;;;5039578;28;20044;-50
2021/11/08 02:06:28;;;;;;;21.88;17.23;;;10.00;71.60;;;;;;5035395;28;20442;-48
2021/11/08 02:08:54;;;;;;;24.48;17.88;;;9.90;71.40;;;;;;5035912;28;20030;-50
2021/11/08 02:11:26;;;;;;;24.33;18.52;;;9.70;71.70;;;;;;5037987;28;20025;-49
2021/11/08 02:13:53;;;;;;;25.52;18.50;;;9.70;72.30;;;;;;5035208;28;20068;-48
2021/11/08 02:16:20;;;;;;;23.42;18.42;;;9.70;72.30;;;;;;5034519;28;20017;-49
2021/11/08 02:18:46;;;;;;;24.35;17.73;;;9.70;72.40;;;;;;5033503;28;20026;-49
2021/11/08 02:21:12;;;;;;;22.65;17.17;;;9.60;72.70;;;;;;5024577;28;20439;-50
2021/11/08 02:23:40;;;;;;;23.10;17.77;;;9.60;72.60;;;;;;5030208;28;20044;-49
2021/11/08 02:26:11;;;;;;;23.55;17.92;;;9.70;71.90;;;;;;5036448;28;20021;-49
2021/11/08 02:28:37;;;;;;;22.13;17.85;;;9.60;72.30;;;;;;5036001;28;20040;-48
2021/11/08 02:31:03;;;;;;;21.75;18.05;;;9.70;72.00;;;;;;5032984;28;20102;-49
2021/11/08 02:33:29;;;;;;;23.93;18.50;;;9.70;72.30;;;;;;5026960;28;20531;-49
2021/11/08 02:35:56;;;;;;;20.05;17.48;;;9.70;72.20;;;;;;5034459;28;20026;-48
2021/11/08 02:38:27;;;;;;;23.33;17.00;;;9.60;72.20;;;;;;5035025;28;20033;-49
2021/11/08 02:40:55;;;;;;;23.73;18.20;;;9.70;72.10;;;;;;5030507;28;20057;-50
2021/11/08 02:43:24;;;;;;;22.98;18.95;;;9.70;71.70;;;;;;5033915;28;20468;-50
2021/11/08 02:46:01;;;;;;;23.77;18.63;;;9.80;71.90;;;;;;5038642;28;20040;-49
2021/11/08 02:48:29;;;;;;;21.63;17.30;;;9.90;71.90;;;;;;5039893;28;20487;-48
2021/11/08 02:51:04;;;;;;;22.83;18.33;;;9.80;70.80;;;;;;5027911;28;20080;-53
2021/11/08 02:53:29;;;;;;;20.48;17.80;;;9.80;72.00;;;;;;5031671;28;20029;-51
2021/11/08 02:55:55;;;;;;;21.43;17.07;;;9.90;71.80;;;;;;5022645;28;20022;-51
2021/11/08 02:58:22;;;;;;;20.25;17.10;;;9.90;72.00;;;;;;5034354;28;20022;-50
2021/11/08 03:00:49;;;;;;;23.60;18.42;;;10.00;71.90;;;;;;5034249;28;20339;-49
2021/11/08 03:03:14;;;;;;;22.58;18.10;;;10.00;71.20;;;;;;5031773;28;20033;-49
2021/11/08 03:05:40;;;;;;;21.77;17.67;;;10.00;71.30;;;;;;5049716;28;20429;-50
2021/11/08 03:08:09;;;;;;;23.02;17.95;;;10.00;71.30;;;;;;5034348;28;20026;-50
2021/11/08 03:10:38;;;;;;;21.88;17.83;;;10.00;71.90;;;;;;5030104;28;20029;-50
2021/11/08 03:13:12;;;;;;;25.13;18.40;;;9.90;71.00;;;;;;5031093;28;20442;-48
2021/11/08 03:18:16;;;;;;;21.75;18.40;;;10.00;72.10;;;;;;5033576;28;20033;-51
2021/11/08 03:20:43;;;;;;;22.63;18.10;;;10.00;71.40;;;;;;5033279;28;20474;-49
2021/11/08 03:23:09;;;;;;;22.25;17.02;;;10.00;71.90;;;;;;5031847;28;20128;-49
2021/11/08 03:28:34;;;;;;;20.55;16.67;;;10.00;70.90;;;;;;5023317;28;20042;-49
2021/11/08 03:31:00;;;;;;;22.63;18.40;;;10.00;71.50;;;;;;5028758;28;20044;-49
2021/11/08 03:33:32;;;;;;;25.17;17.77;;;10.10;71.30;;;;;;5033423;28;20037;-49
2021/11/08 03:36:00;;;;;;;20.80;16.67;;;10.10;71.50;;;;;;5020420;28;20478;-49
2021/11/08 03:38:25;;;;;;;21.08;16.98;;;10.10;71.90;;;;;;5033474;28;20083;-49
2021/11/08 03:40:51;;;;;;;21.33;16.90;;;10.10;71.50;;;;;;5032827;28;20049;-49
2021/11/08 03:43:20;;;;;;;21.02;16.42;;;10.10;72.10;;;;;;5032486;28;20487;-48
2021/11/08 03:45:47;;;;;;;23.00;17.35;;;10.10;70.70;;;;;;5019959;28;20039;-49
2021/11/08 03:48:15;;;;;;;21.52;17.77;;;10.10;71.60;;;;;;5032173;28;20056;-48
2021/11/08 03:50:41;;;;;;;24.40;17.50;;;10.00;70.90;;;;;;5032002;28;20022;-48
2021/11/08 03:53:08;;;;;;;23.67;18.50;;;10.10;71.30;;;;;;5039509;28;20113;-50
2021/11/08 03:55:34;;;;;;;21.27;16.27;;;10.10;71.30;;;;;;5032636;28;20434;-48
2021/11/08 03:58:01;;;;;;;21.48;17.50;;;10.10;71.50;;;;;;5034243;28;20033;-50
2021/11/08 04:00:28;;;;;;;22.20;18.65;;;10.00;71.80;;;;;;5041673;28;20037;-51
2021/11/08 04:02:54;;;;;;;22.63;17.75;;;10.00;71.60;;;;;;5048314;28;21970;-48
2021/11/08 04:05:22;;;;;;;20.90;17.55;;;9.90;71.30;;;;;;5032915;28;20386;-48
2021/11/08 04:07:48;;;;;;;19.70;17.52;;;10.00;72.20;;;;;;5032708;28;20033;-49
2021/11/08 04:10:16;;;;;;;23.05;18.27;;;10.00;72.10;;;;;;5033556;28;20049;-49
2021/11/08 04:12:42;;;;;;;20.50;17.52;;;10.20;71.80;;;;;;5027932;28;20037;-50
2021/11/08 04:15:11;;;;;;;21.02;17.40;;;10.20;71.30;;;;;;5041454;28;20037;-51
2021/11/08 04:17:43;;;;;;;22.00;17.70;;;10.10;71.20;;;;;;5030826;28;20045;-50
2021/11/08 04:20:09;;;;;;;23.07;17.40;;;10.20;71.80;;;;;;5033172;28;20025;-49
2021/11/08 04:22:36;;;;;;;20.13;17.40;;;10.00;70.40;;;;;;5031619;28;20550;-51
2021/11/08 04:25:03;;;;;;;20.38;16.90;;;10.00;71.10;;;;;;5053491;28;20372;-48
2021/11/08 04:27:37;;;;;;;20.73;16.52;;;10.10;70.90;;;;;;5032900;28;20025;-49
2021/11/08 04:30:07;;;;;;;21.45;16.45;;;10.30;71.10;;;;;;5033059;28;20068;-51
2021/11/08 04:32:46;;;;;;;22.00;17.13;;;10.30;70.40;;;;;;5030672;28;20057;-49
2021/11/08 04:35:16;;;;;;;23.05;17.10;;;10.40;70.20;;;;;;5035619;28;20029;-51
2021/11/08 04:42:53;;;;;;;22.77;17.92;;;10.30;69.30;;;;;;5029573;28;20045;-51
2021/11/08 04:45:41;;;;;;;20.55;16.83;;;10.40;69.80;;;;;;5033994;28;20084;-53
2021/11/08 04:48:24;;;;;;;23.40;17.83;;;10.50;69.40;;;;;;5023920;28;20021;-54
2021/11/08 04:50:57;;;;;;;21.52;18.08;;;10.40;68.90;;;;;;5032464;28;20037;-50
2021/11/08 04:53:34;;;;;;;23.85;17.45;;;10.50;69.00;;;;;;5033727;28;20063;-51
2021/11/08 05:31:38;;;;;;;20.20;17.48;;;10.60;69.70;;;;;;5037458;28;20103;-49
2021/11/08 05:34:04;;;;;;;22.25;17.95;;;10.60;70.20;;;;;;5031271;28;20383;-54
2021/11/08 05:36:30;;;;;;;21.85;17.38;;;10.70;69.20;;;;;;5029699;28;20541;-51
2021/11/08 05:38:55;;;;;;;22.60;18.20;;;10.70;69.70;;;;;;5031488;28;20057;-48
2021/11/08 05:41:21;;;;;;;19.42;16.52;;;10.70;69.80;;;;;;5031853;28;20037;-49
2021/11/08 05:43:47;;;;;;;20.45;16.95;;;10.60;68.80;;;;;;5029699;28;20175;-50
2021/11/08 05:46:12;;;;;;;21.30;16.88;;;10.70;68.80;;;;;;5038501;28;20388;-49
2021/11/08 05:48:43;;;;;;;21.52;17.30;;;10.80;69.10;;;;;;5031168;28;20036;-50
2021/11/08 05:51:09;;;;;;;23.13;16.67;;;10.70;68.80;;;;;;5034029;28;20029;-48
2021/11/08 05:53:34;;;;;;;21.75;16.75;;;10.70;69.60;;;;;;5030932;28;20044;-50
2021/11/08 05:56:48;;;;;;;24.70;17.50;;;10.40;68.50;;;;;;5031452;28;20111;-48
2021/11/08 06:50:31;;;;;;;13.50;10.30;;;10.60;62.80;;;;;;5035080;28;19946;-48
2021/11/08 06:53:03;;;;;;;13.55;10.27;;;10.40;65.00;;;;;;5033342;28;20109;-51
2021/11/08 06:55:29;;;;;;;13.85;11.10;;;10.50;65.30;;;;;;5030861;28;20112;-49
2021/11/08 06:58:02;;;;;;;16.38;11.18;;;10.60;63.70;;;;;;5030122;28;20467;-51
2021/11/08 07:00:28;;;;;;;13.43;10.63;;;10.60;64.40;;;;;;5035199;28;20100;-48
2021/11/08 07:02:54;;;;;;;17.05;11.77;;;10.60;63.90;;;;;;5021529;28;20506;-50
2021/11/08 07:05:20;;;;;;;13.48;10.23;;;10.60;64.80;;;;;;5032630;28;20053;-52
2021/11/08 07:07:47;;;;;;;16.85;12.85;;;10.70;64.10;;;;;;5053707;28;20482;-49
2021/11/08 07:10:12;;;;;;;18.30;13.18;;;10.70;64.50;;;;;;5041101;28;20029;-49
2021/11/08 07:12:38;;;;;;;18.75;13.32;;;10.80;64.60;;;;;;5035073;28;20022;-50
2021/11/08 07:15:06;;;;;;;22.02;15.02;;;10.60;64.50;;;;;;5032082;28;20032;-49
2021/11/08 07:17:32;;;;;;;20.02;15.13;;;10.70;65.00;;;;;;5032201;28;20497;-51
2021/11/08 07:20:00;;;;;;;21.45;14.63;;;10.60;65.00;;;;;;5033777;28;20039;-48
2021/11/08 07:22:27;;;;;;;23.27;15.40;;;10.60;64.10;;;;;;5035695;28;20045;-50
2021/11/08 07:24:52;;;;;;;22.02;15.57;;;10.60;64.50;;;;;;5030123;28;20041;-48
2021/11/08 07:27:19;;;;;;;24.75;16.30;;;10.50;64.90;;;;;;5034407;28;20483;-51
2021/11/08 07:29:44;;;;;;;24.25;16.70;;;10.50;64.80;;;;;;5031932;28;20033;-48
2021/11/08 07:32:10;;;;;;;22.80;16.80;;;10.60;65.40;;;;;;5030483;28;20037;-54
2021/11/08 07:34:36;;;;;;;26.73;16.92;;;10.50;65.30;;;;;;5029189;28;20479;-49
2021/11/08 07:37:02;;;;;;;23.48;16.75;;;10.50;66.00;;;;;;5033514;28;20060;-53
2021/11/08 07:39:27;;;;;;;26.15;17.88;;;10.50;65.30;;;;;;5031496;28;20108;-50
2021/11/08 07:41:53;;;;;;;26.08;18.23;;;10.40;65.50;;;;;;5030847;28;20033;-53
2021/11/08 07:44:19;;;;;;;23.02;18.17;;;10.40;66.00;;;;;;5050149;28;20068;-53
2021/11/08 07:46:44;;;;;;;25.07;18.27;;;10.30;65.70;;;;;;5033894;28;20017;-52
2021/11/08 07:49:10;;;;;;;24.55;17.45;;;10.30;66.60;;;;;;5030223;28;20029;-51
2021/11/08 07:51:36;;;;;;;23.38;17.90;;;10.40;66.70;;;;;;5019721;28;20360;-53
2021/11/08 07:54:02;;;;;;;29.02;18.30;;;10.30;67.00;;;;;;5029740;28;20026;-52
2021/11/08 07:56:28;;;;;;;27.75;18.05;;;10.30;67.40;;;;;;5028889;28;20378;-50
2021/11/08 07:58:59;;;;;;;26.83;17.10;;;10.30;67.60;;;;;;5043770;28;20517;-49
2021/11/08 08:01:25;;;;;;;24.80;16.85;;;10.40;68.30;;;;;;5033458;28;20025;-49
2021/11/08 08:03:51;;;;;;;26.55;16.63;;;10.40;68.40;;;;;;5047751;28;20398;-49
2021/11/08 08:06:17;;;;;;;22.10;16.00;;;10.40;68.60;;;;;;5045590;28;20040;-48
2021/11/08 08:08:46;;;;;;;25.13;16.57;;;10.50;68.80;;;;;;5031729;28;20375;-49
2021/11/08 08:11:12;;;;;;;18.93;14.67;;;10.40;69.20;;;;;;5033898;28;20036;-49
2021/11/08 08:13:38;;;;;;;19.15;14.05;;;10.40;69.30;;;;;;5045563;28;20029;-49
2021/11/08 08:16:09;;;;;;;23.63;14.05;;;10.40;70.40;;;;;;5053540;28;20075;-52
2021/11/08 08:18:37;;;;;;;20.10;14.32;;;10.50;70.10;;;;;;5032022;28;20361;-48
2021/11/08 08:21:04;;;;;;;20.90;14.37;;;10.40;70.30;;;;;;5033972;28;20090;-49
2021/11/08 08:23:30;;;;;;;19.63;14.63;;;10.40;71.00;;;;;;5043807;28;20561;-50
2021/11/08 08:25:55;;;;;;;17.60;14.03;;;10.50;70.20;;;;;;5052215;28;20063;-48
2021/11/08 08:28:21;;;;;;;20.58;14.02;;;10.50;70.80;;;;;;5032329;28;20044;-52
2021/11/08 08:30:58;;;;;;;21.05;14.55;;;10.50;70.90;;;;;;5033469;28;20387;-48
2021/11/08 08:33:23;;;;;;;23.25;13.68;;;10.60;72.10;;;;;;5042988;28;20098;-49
2021/11/08 08:35:49;;;;;;;22.13;14.70;;;10.50;71.10;;;;;;5053672;28;20057;-50
2021/11/08 08:38:18;;;;;;;20.88;13.93;;;10.40;71.20;;;;;;5033445;28;20029;-49
2021/11/08 08:40:46;;;;;;;20.50;14.53;;;10.50;72.30;;;;;;5033018;28;20430;-48
2021/11/08 08:43:12;;;;;;;20.52;13.50;;;10.50;71.60;;;;;;5040680;28;20132;-50
2021/11/08 08:45:38;;;;;;;21.10;14.27;;;10.50;71.60;;;;;;5053240;28;20074;-49
2021/11/08 08:48:05;;;;;;;18.13;14.05;;;10.50;72.10;;;;;;5046781;28;20036;-48
2021/11/08 08:50:32;;;;;;;18.05;12.88;;;10.60;72.20;;;;;;5053206;28;20108;-50
2021/11/08 08:52:57;;;;;;;20.50;12.80;;;10.80;71.70;;;;;;5049747;28;20075;-48
2021/11/08 08:55:23;;;;;;;19.17;13.68;;;11.10;71.10;;;;;;5052232;28;20037;-49
2021/11/08 08:57:51;;;;;;;20.48;14.00;;;11.20;70.40;;;;;;5036268;28;20462;-51
2021/11/08 09:00:19;;;;;;;20.70;14.52;;;11.40;70.10;;;;;;5053183;28;20036;-48
2021/11/08 09:02:45;;;;;;;17.98;12.85;;;11.60;69.40;;;;;;5046749;28;20017;-49
2021/11/08 09:05:11;;;;;;;17.42;12.77;;;11.60;69.30;;;;;;5033113;28;20025;-51
2021/11/08 09:07:37;;;;;;;19.13;12.75;;;11.70;69.10;;;;;;5031046;28;20024;-50
2021/11/08 09:13:25;;;;;;;16.23;11.25;;;11.80;68.80;;;;;;5039580;28;20379;-55
2021/11/08 09:15:50;;;;;;;16.13;11.60;;;11.60;68.60;;;;;;5031518;28;20021;-54
2021/11/08 09:18:16;;;;;;;14.68;11.05;;;11.70;69.10;;;;;;5031083;28;20030;-55
2021/11/08 09:20:44;;;;;;;15.38;11.65;;;11.60;68.80;;;;;;5032713;28;20029;-52
2021/11/08 09:23:11;;;;;;;14.35;11.38;;;11.70;69.60;;;;;;5038483;28;20066;-54
2021/11/08 09:25:37;;;;;;;13.98;10.95;;;11.80;69.30;;;;;;5038449;28;20101;-52
2021/11/08 09:28:04;;;;;;;14.68;10.88;;;11.80;69.30;;;;;;5033208;28;20417;-56
2021/11/08 09:30:34;;;;;;;16.23;11.50;;;11.80;69.30;;;;;;5029325;28;20033;-53
2021/11/08 09:33:00;;;;;;;17.75;10.73;;;11.70;69.50;;;;;;5027405;28;20034;-53
2021/11/08 09:35:32;;;;;;;16.10;11.45;;;11.80;69.90;;;;;;5030917;28;20035;-51
2021/11/08 09:38:02;;;;;;;16.45;11.77;;;11.90;69.60;;;;;;5025353;28;20025;-52
2021/11/08 09:40:28;;;;;;;21.42;15.23;;;12.00;69.40;;;;;;5030183;28;20399;-51
2021/11/08 09:42:56;;;;;;;20.92;14.25;;;12.00;69.40;;;;;;5033989;28;20032;-51
2021/11/08 09:45:23;;;;;;;18.33;13.82;;;12.10;69.70;;;;;;5033410;28;20115;-51
2021/11/08 09:47:49;;;;;;;18.38;13.55;;;12.10;69.20;;;;;;5022654;28;20104;-54
2021/11/08 09:50:18;;;;;;;19.88;13.93;;;12.10;69.90;;;;;;5028168;28;20452;-53
2021/11/08 09:52:47;;;;;;;19.10;13.05;;;12.10;69.70;;;;;;5031277;28;20048;-50
2021/11/08 09:55:16;;;;;;;15.25;12.63;;;12.00;70.00;;;;;;5039510;28;20030;-52
2021/11/08 09:57:42;;;;;;;23.63;14.77;;;11.80;71.00;;;;;;5030192;28;20044;-52
2021/11/08 10:00:23;;;;;;;18.65;14.10;;;11.90;70.90;;;;;;5030042;28;20033;-51
2021/11/08 10:02:59;;;;;;;19.05;14.82;;;12.10;70.70;;;;;;5027224;28;20029;-52
2021/11/08 10:05:29;;;;;;;20.75;14.93;;;11.90;70.80;;;;;;5032259;28;20390;-51
2021/11/08 10:07:56;;;;;;;21.17;16.05;;;11.90;71.20;;;;;;5036488;28;20109;-53
2021/11/08 10:10:22;;;;;;;27.17;14.88;;;11.70;71.30;;;;;;5032665;28;20037;-55
2021/11/08 10:12:52;;;;;;;17.58;14.07;;;11.80;72.00;;;;;;5045457;28;20076;-53
2021/11/08 10:15:19;;;;;;;20.33;14.77;;;11.70;71.90;;;;;;5027456;28;20078;-52
2021/11/08 10:17:46;;;;;;;19.20;13.32;;;11.40;72.90;;;;;;5036529;28;20025;-53
2021/11/08 10:20:30;;;;;;;19.13;15.40;;;11.50;72.90;;;;;;5035137;28;20329;-51
2021/11/08 10:22:56;;;;;;;17.75;13.40;;;11.70;72.90;;;;;;5021889;28;20136;-51
2021/11/08 10:25:22;;;;;;;19.83;14.57;;;11.60;72.20;;;;;;5033047;28;20038;-50
2021/11/08 10:27:48;;;;;;;17.15;13.27;;;11.70;72.00;;;;;;5033438;28;20360;-50
2021/11/08 10:30:31;;;;;;;17.85;13.15;;;11.80;72.80;;;;;;5032550;28;20103;-52
2021/11/08 10:33:19;;;;;;;22.08;15.68;;;11.80;70.90;;;;;;5031683;28;20017;-50
2021/11/08 10:35:56;;;;;;;23.10;14.68;;;11.60;72.80;;;;;;5031362;28;20034;-50
2021/11/08 10:38:28;;;;;;;18.25;13.02;;;11.70;73.10;;;;;;5032529;28;20372;-55
2021/11/08 10:40:59;;;;;;;18.88;13.27;;;11.60;73.10;;;;;;5026559;28;20402;-54
2021/11/08 10:43:32;;;;;;;19.92;13.68;;;11.60;73.80;;;;;;5032121;28;20118;-51
2021/11/08 10:46:08;;;;;;;19.77;14.02;;;11.60;74.40;;;;;;5028379;28;20527;-50
2021/11/08 10:48:38;;;;;;;20.77;14.30;;;11.60;74.00;;;;;;5033840;28;20033;-52
2021/11/08 10:51:06;;;;;;;18.75;12.93;;;11.60;73.70;;;;;;5019600;28;20478;-54
2021/11/08 10:53:47;;;;;;;23.85;14.85;;;11.40;73.20;;;;;;5036513;28;20041;-54
2021/11/08 10:56:18;;;;;;;19.90;12.75;;;11.50;74.60;;;;;;5033041;28;20061;-50
2021/11/08 10:58:46;;;;;;;21.77;13.80;;;11.60;73.80;;;;;;5031663;28;20033;-50
2021/11/08 11:01:23;;;;;;;20.88;14.07;;;11.60;74.40;;;;;;5025922;28;20036;-51
2021/11/08 11:03:53;;;;;;;18.95;14.23;;;11.60;75.20;;;;;;5032150;28;20061;-51
2021/11/08 11:06:31;;;;;;;21.38;14.43;;;11.70;75.70;;;;;;5037457;28;20471;-50
2021/11/08 11:09:00;;;;;;;21.05;14.95;;;11.70;76.00;;;;;;5054055;28;20051;-52
2021/11/08 11:11:26;;;;;;;18.65;14.00;;;11.60;76.90;;;;;;5030518;28;20057;-55
2021/11/08 11:13:54;;;;;;;22.10;14.82;;;11.50;77.40;;;;;;5032002;28;20107;-54
2021/11/08 11:16:42;;;;;;;22.40;15.98;;;11.50;78.60;;;;;;5033516;28;20496;-53
2021/11/08 11:19:13;;;;;;;26.27;16.85;;;11.70;79.80;;;;;;5047163;28;20030;-52
2021/11/08 11:22:10;;;;;;;28.05;16.73;;;11.60;80.20;;;;;;5030357;28;20025;-52
2021/11/08 11:24:56;;;;;;;23.05;16.42;;;11.50;82.10;;;;;;5030778;28;20056;-51
2021/11/08 11:27:27;;;;;;;26.10;16.73;;;11.50;81.90;;;;;;5028349;28;20033;-53
2021/11/08 11:30:09;;;;;;;21.48;16.08;;;11.20;81.60;;;;;;5033034;28;20040;-52
2021/11/08 11:32:35;;;;;;;22.73;15.77;;;11.40;81.80;;;;;;5030114;28;20032;-53
2021/11/08 11:35:01;;;;;;;28.48;17.27;;;11.30;81.70;;;;;;5031952;28;20021;-51
2021/11/08 11:37:28;;;;;;;24.60;16.23;;;11.30;82.50;;;;;;5032858;28;20029;-54
2021/11/08 11:40:24;;;;;;;24.85;18.10;;;11.30;82.40;;;;;;5031793;28;20418;-53
2021/11/08 11:42:53;;;;;;;21.70;17.42;;;11.40;84.70;;;;;;5028640;28;20156;-50
2021/11/08 11:45:19;;;;;;;24.33;17.65;;;11.50;82.70;;;;;;5034205;28;20487;-55
2021/11/08 11:47:56;;;;;;;22.38;17.02;;;11.50;82.50;;;;;;5029294;28;20443;-53
2021/11/08 11:50:24;;;;;;;22.35;16.98;;;11.40;82.60;;;;;;5030797;28;20506;-51
2021/11/08 11:52:57;;;;;;;23.40;18.00;;;11.40;81.50;;;;;;5035821;28;20535;-52
2021/11/08 11:55:23;;;;;;;19.45;17.15;;;11.30;82.40;;;;;;5027942;28;20037;-56
2021/11/08 11:57:48;;;;;;;24.17;18.75;;;11.50;82.70;;;;;;5029265;28;20036;-53
2021/11/08 12:00:15;;;;;;;24.33;17.35;;;11.60;82.80;;;;;;5033402;28;20065;-50
2021/11/08 12:02:41;;;;;;;23.25;17.52;;;11.60;82.00;;;;;;5032024;28;20035;-51
2021/11/08 12:05:07;;;;;;;24.88;17.90;;;11.60;82.70;;;;;;5028887;28;20449;-55
2021/11/08 12:07:33;;;;;;;23.60;18.77;;;11.50;82.40;;;;;;5028913;28;20025;-52
2021/11/08 12:10:05;;;;;;;22.17;18.08;;;11.50;82.70;;;;;;5023842;28;20030;-51
2021/11/08 12:12:31;;;;;;;22.67;17.42;;;11.50;82.70;;;;;;5031018;28;20029;-52
2021/11/08 12:15:09;;;;;;;21.15;16.42;;;11.60;82.30;;;;;;5031143;28;20033;-55
2021/11/08 12:17:41;;;;;;;23.42;17.67;;;11.50;82.40;;;;;;5031462;28;20029;-51
2021/11/08 12:20:24;;;;;;;21.77;19.23;;;11.50;83.30;;;;;;5029331;28;20056;-50
2021/11/08 12:22:50;;;;;;;22.02;18.88;;;11.50;82.90;;;;;;5028637;28;20033;-51
2021/11/08 12:25:19;;;;;;;23.42;18.98;;;11.50;82.70;;;;;;5033537;28;20030;-51
2021/11/08 12:28:04;;;;;;;22.52;17.98;;;11.50;83.00;;;;;;5031502;28;20029;-52
2021/11/08 12:30:32;;;;;;;23.88;18.77;;;11.50;83.10;;;;;;5033271;28;20092;-57
2021/11/08 12:33:20;;;;;;;24.33;19.38;;;11.50;83.20;;;;;;5031097;28;20467;-54
2021/11/08 12:35:45;;;;;;;28.23;22.08;;;11.50;82.80;;;;;;5027286;28;20541;-56
2021/11/08 12:38:22;;;;;;;22.40;18.25;;;11.60;83.20;;;;;;5029714;28;20131;-58
2021/11/08 12:40:49;;;;;;;22.58;17.73;;;11.60;83.50;;;;;;5023450;28;20034;-55
2021/11/08 12:43:28;;;;;;;23.02;18.38;;;11.60;82.80;;;;;;5031806;28;20033;-54
2021/11/08 12:45:54;;;;;;;22.67;17.38;;;11.50;83.30;;;;;;5031661;28;20495;-51
2021/11/08 12:48:20;;;;;;;21.25;17.33;;;11.50;82.30;;;;;;5030326;28;20022;-53
2021/11/08 12:50:49;;;;;;;21.30;18.17;;;11.50;83.00;;;;;;5031479;28;20026;-53
2021/11/08 12:53:34;;;;;;;21.38;17.45;;;11.60;83.80;;;;;;5029279;28;20025;-53
2021/11/08 12:56:07;;;;;;;23.60;17.17;;;11.60;83.70;;;;;;5029398;28;20033;-50
2021/11/08 12:58:44;;;;;;;21.13;17.20;;;11.70;82.70;;;;;;5023662;28;20127;-51
2021/11/08 13:01:15;;;;;;;19.73;16.45;;;11.70;83.40;;;;;;5029484;28;20025;-52
2021/11/08 13:04:18;;;;;;;22.23;16.55;;;11.70;83.60;;;;;;5030478;28;20100;-51
2021/11/08 13:06:47;;;;;;;19.85;16.60;;;11.70;83.40;;;;;;5038931;28;20033;-54
2021/11/08 13:09:22;;;;;;;23.30;17.27;;;11.60;83.50;;;;;;5029792;28;20053;-51
2021/11/08 13:11:56;;;;;;;20.15;16.60;;;11.60;84.00;;;;;;5031629;28;20017;-53
2021/11/08 13:14:29;;;;;;;21.88;15.77;;;11.70;83.80;;;;;;5029090;28;20040;-51
2021/11/08 13:17:06;;;;;;;22.20;17.13;;;11.80;83.60;;;;;;5023526;28;20430;-56
2021/11/08 13:19:33;;;;;;;18.80;16.70;;;11.90;84.10;;;;;;5027592;28;20099;-52
2021/11/08 13:22:20;;;;;;;18.83;15.95;;;11.80;83.60;;;;;;5028166;28;20456;-51
2021/11/08 13:24:57;;;;;;;19.60;15.40;;;11.90;83.50;;;;;;5033575;28;20044;-53
2021/11/08 13:27:22;;;;;;;18.35;15.88;;;11.70;82.60;;;;;;5032601;28;20037;-55
2021/11/08 13:29:54;;;;;;;20.17;15.85;;;11.80;84.80;;;;;;5029978;28;20045;-51
2021/11/08 13:32:20;;;;;;;18.40;14.82;;;11.80;83.90;;;;;;5028415;28;20026;-55
2021/11/08 13:34:45;;;;;;;19.88;15.35;;;11.70;83.10;;;;;;5029678;28;20104;-52
2021/11/08 13:37:11;;;;;;;20.15;15.23;;;11.70;83.80;;;;;;5028097;28;20029;-53
2021/11/08 13:39:36;;;;;;;18.98;15.57;;;11.90;84.60;;;;;;5038162;28;20452;-53
2021/11/08 13:42:02;;;;;;;18.05;15.13;;;11.80;84.40;;;;;;5034402;28;20029;-50
2021/11/08 13:44:28;;;;;;;20.67;15.57;;;11.80;83.90;;;;;;5035285;28;20069;-54
2021/11/08 13:46:54;;;;;;;20.25;15.68;;;11.80;84.40;;;;;;5026063;28;20029;-54
2021/11/08 13:49:23;;;;;;;16.45;14.57;;;11.90;84.60;;;;;;5033691;28;20025;-50
2021/11/08 13:51:55;;;;;;;19.65;15.15;;;11.90;84.40;;;;;;5032010;28;20022;-56
2021/11/08 13:54:34;;;;;;;17.92;14.63;;;11.90;85.20;;;;;;5039409;28;20440;-53
2021/11/08 13:57:05;;;;;;;17.05;14.00;;;12.00;85.50;;;;;;5028534;28;20436;-55
2021/11/08 13:59:37;;;;;;;16.70;14.40;;;11.90;85.20;;;;;;5034560;28;20053;-51
2021/11/08 14:02:08;;;;;;;14.90;13.35;;;11.80;85.80;;;;;;5035775;28;20087;-52
2021/11/08 14:04:37;;;;;;;18.15;15.27;;;11.80;86.10;;;;;;5035801;28;20037;-56
2021/11/08 14:07:05;;;;;;;16.63;14.05;;;11.60;86.60;;;;;;5036609;28;20022;-57
2021/11/08 14:09:31;;;;;;;17.08;13.73;;;11.70;87.20;;;;;;5031981;28;20505;-59
2021/11/08 14:12:00;;;;;;;15.48;13.88;;;11.70;87.20;;;;;;5033899;28;20080;-56
2021/11/08 14:14:34;;;;;;;20.40;14.05;;;11.80;86.80;;;;;;5033384;28;20022;-56
2021/11/08 14:17:28;;;;;;;19.20;15.18;;;11.70;87.40;;;;;;5030641;28;20025;-54
2021/11/08 14:19:59;;;;;;;18.33;15.43;;;11.70;87.00;;;;;;5030279;28;20402;-56
2021/11/08 14:22:30;;;;;;;20.63;15.25;;;11.60;87.30;;;;;;5032375;28;20121;-56
2021/11/08 14:24:57;;;;;;;17.52;15.63;;;11.70;88.50;;;;;;5029722;28;20037;-51